Time;durP1;ratioP1;P1;durP2;ratioP2;P2;SDS_P1;SDS_P2;PMS_P1;PMS_P2;Temp;Humidity;BMP_temperature;BMP_pressure;BME280_temperature;BME280_humidity;BME280_pressure;Samples;Min_cycle;Max_cycle;Signal;HPM_P1;HPM_P2
2022/10/22 00:02:03;;;;;;;55.17;26.97;;;;;;;-141.28;100.00;49372.50;5121241;27;20472;-76
2022/10/22 00:04:30;;;;;;;45.63;23.57;;;;;;;-141.28;100.00;49368.59;5134110;27;20516;-75
2022/10/22 00:06:56;;;;;;;35.10;19.30;;;;;;;-141.28;100.00;49384.28;5134475;27;20451;-79
2022/10/22 00:09:23;;;;;;;29.60;15.57;;;;;;;-141.28;100.00;49368.59;5134346;27;20286;-75
2022/10/22 00:11:50;;;;;;;28.13;17.27;;;;;;;-141.28;100.00;49364.66;5134116;27;20487;-78
2022/10/22 00:14:17;;;;;;;30.00;17.87;;;;;;;-141.28;100.00;49368.59;5134100;27;20505;-76
2022/10/22 00:16:44;;;;;;;70.67;35.27;;;;;;;-141.28;100.00;49372.50;5133550;27;20444;-76
2022/10/22 00:19:13;;;;;;;51.60;27.90;;;;;;;-141.28;100.00;49403.91;5133847;27;20266;-75
2022/10/22 00:21:40;;;;;;;40.47;22.93;;;;;;;-141.28;100.00;49376.44;5115618;27;20452;-77
2022/10/22 00:24:07;;;;;;;61.17;29.43;;;;;;;-141.28;100.00;49368.59;5133866;27;20235;-75
2022/10/22 00:26:34;;;;;;;22.87;12.57;;;;;;;-141.28;100.00;49380.34;5133537;27;20642;-75
2022/10/22 00:29:01;;;;;;;16.03;11.33;;;;;;;-141.28;100.00;49396.06;5133714;27;20885;-79
2022/10/22 00:31:29;;;;;;;21.57;12.10;;;;;;;-141.28;100.00;49352.88;5133472;27;20482;-79
2022/10/22 00:33:55;;;;;;;19.30;10.67;;;;;;;-141.28;100.00;49354.84;5133656;27;20450;-78
2022/10/22 00:36:23;;;;;;;20.10;12.17;;;;;;;-141.28;100.00;49358.78;5133529;27;20467;-76
2022/10/22 00:38:52;;;;;;;22.40;11.50;;;;;;;-141.28;100.00;49360.75;5134271;27;20953;-78
2022/10/22 00:41:19;;;;;;;15.17;10.30;;;;;;;-141.28;100.00;49376.44;5120230;27;20466;-78
2022/10/22 00:43:58;;;;;;;18.07;10.47;;;;;;;-141.28;100.00;49415.69;5133177;27;20938;-78
2022/10/22 00:46:25;;;;;;;15.67;10.57;;;;;;;-141.28;100.00;49415.69;5133269;27;20821;-76
2022/10/22 00:48:52;;;;;;;16.10;10.77;;;;;;;-141.28;100.00;49437.25;5133411;27;20436;-76
2022/10/22 00:51:21;;;;;;;18.27;11.20;;;;;;;-141.28;100.00;49425.50;5133618;27;20911;-78
2022/10/22 00:53:54;;;;;;;16.30;10.63;;;;;;;-141.28;100.00;49449.03;5120147;27;20844;-76
2022/10/22 00:56:22;;;;;;;18.13;11.63;;;;;;;-141.28;100.00;49458.84;5133024;27;20454;-74
2022/10/22 00:58:53;;;;;;;22.77;11.53;;;;;;;-141.28;100.00;49435.31;5132812;27;20443;-76
2022/10/22 01:01:26;;;;;;;17.17;10.27;;;;;;;-141.28;100.00;49439.22;5133050;27;20497;-78
2022/10/22 01:03:53;;;;;;;17.73;10.80;;;;;;;-141.28;100.00;49472.59;5132993;27;20451;-80
2022/10/22 01:06:24;;;;;;;15.27;10.27;;;;;;;-141.28;100.00;49458.84;5132940;27;20452;-77
2022/10/22 01:09:03;;;;;;;19.37;9.83;;;;;;;-141.28;100.00;49484.34;5133230;27;20444;-75
2022/10/22 01:11:42;;;;;;;20.37;10.67;;;;;;;-141.28;100.00;49498.09;5134832;27;20328;-76
2022/10/22 01:14:17;;;;;;;16.10;10.07;;;;;;;-141.28;100.00;49509.88;5133150;27;20447;-80
2022/10/22 01:16:54;;;;;;;13.83;9.73;;;;;;;-141.28;100.00;49496.13;5133017;27;20965;-77
2022/10/22 01:19:45;;;;;;;20.13;10.97;;;;;;;-141.28;100.00;49513.78;5132944;27;20455;-75
2022/10/22 01:22:19;;;;;;;14.07;9.90;;;;;;;-141.28;100.00;49513.78;5132942;27;20946;-75
2022/10/22 01:24:57;;;;;;;16.63;9.97;;;;;;;-141.28;100.00;49490.25;5133099;27;20531;-75
2022/10/22 01:27:45;;;;;;;16.27;10.30;;;;;;;-141.28;100.00;49502.03;5132952;27;20435;-77
2022/10/22 01:30:15;;;;;;;14.13;10.17;;;;;;;-141.28;100.00;49496.13;5121309;27;20440;-79
2022/10/22 01:32:46;;;;;;;16.50;10.13;;;;;;;-141.28;100.00;49490.25;5132599;27;20517;-75
2022/10/22 01:35:17;;;;;;;17.23;10.50;;;;;;;-141.28;100.00;49472.59;5132872;27;20633;-75
2022/10/22 01:37:48;;;;;;;15.70;10.43;;;;;;;-141.28;100.00;49472.59;5132498;27;20443;-76
2022/10/22 01:40:17;;;;;;;14.90;10.10;;;;;;;-141.28;100.00;49486.31;5132609;27;20448;-75
2022/10/22 01:42:55;;;;;;;15.33;9.90;;;;;;;-141.28;100.00;49521.63;5132348;27;20539;-75
2022/10/22 01:45:24;;;;;;;19.27;9.43;;;;;;;-141.28;100.00;49507.91;5132765;28;20444;-76
2022/10/22 01:48:00;;;;;;;17.97;10.17;;;;;;;-141.28;100.00;49513.78;5132901;28;20475;-79
2022/10/22 01:50:45;;;;;;;17.67;10.43;;;;;;;-141.28;100.00;49533.41;5121296;28;20539;-74
2022/10/22 01:53:25;;;;;;;14.23;10.10;;;;;;;-141.28;100.00;49537.34;5150432;28;20448;-74
2022/10/22 01:56:03;;;;;;;15.27;9.83;;;;;;;-141.28;100.00;49509.88;5137151;28;20866;-77
2022/10/22 01:58:39;;;;;;;17.20;11.83;;;;;;;-141.28;100.00;49519.69;5130046;28;20451;-76
2022/10/22 02:01:15;;;;;;;17.73;11.67;;;;;;;-141.28;100.00;49515.75;5134880;27;20459;-73
2022/10/22 02:03:48;;;;;;;21.47;11.33;;;;;;;-141.28;100.00;49517.72;5139002;28;20442;-77
2022/10/22 02:06:18;;;;;;;25.73;12.83;;;;;;;-141.28;100.00;49517.72;5120396;28;20464;-75
2022/10/22 02:08:47;;;;;;;20.57;11.50;;;;;;;-141.28;100.00;49531.44;5137956;27;20448;-74
2022/10/22 02:11:16;;;;;;;19.67;11.10;;;;;;;-141.28;100.00;49527.53;5141951;27;20603;-76
2022/10/22 02:13:47;;;;;;;17.80;11.60;;;;;;;-141.28;100.00;49562.84;5136727;27;20459;-79
2022/10/22 02:16:20;;;;;;;21.30;11.33;;;;;;;-141.28;100.00;49560.88;5136699;27;20460;-77
2022/10/22 02:18:52;;;;;;;17.43;11.30;;;;;;;-141.28;100.00;49580.50;5141938;27;20435;-74
2022/10/22 02:21:18;;;;;;;18.20;11.57;;;;;;;-141.28;100.00;49568.75;5138734;27;20877;-76
2022/10/22 02:23:46;;;;;;;21.77;12.77;;;;;;;-141.28;100.00;49553.03;5139820;27;20440;-75
2022/10/22 02:26:20;;;;;;;29.40;15.10;;;;;;;-141.28;100.00;49596.22;5138054;27;20530;-78
2022/10/22 02:28:57;;;;;;;24.97;14.43;;;;;;;-141.28;100.00;49609.94;5138691;27;20551;-79
2022/10/22 02:31:28;;;;;;;23.60;13.83;;;;;;;-141.28;100.00;49619.75;5138082;27;20481;-77
2022/10/22 02:33:59;;;;;;;25.03;14.40;;;;;;;-141.28;100.00;49600.13;5135915;27;20440;-76
2022/10/22 02:36:26;;;;;;;23.00;14.90;;;;;;;-141.28;100.00;49623.69;5136152;27;20496;-76
2022/10/22 02:38:54;;;;;;;25.33;15.40;;;;;;;-141.28;100.00;49635.47;5136025;27;20496;-77
2022/10/22 02:41:21;;;;;;;29.40;16.03;;;;;;;-141.28;100.00;49627.59;5135995;27;20958;-74
2022/10/22 02:43:51;;;;;;;26.17;16.70;;;;;;;-141.28;100.00;49623.69;5135577;27;20853;-76
2022/10/22 02:46:18;;;;;;;27.67;17.30;;;;;;;-141.28;100.00;49617.78;5136086;27;20523;-77
2022/10/22 02:48:47;;;;;;;32.87;17.57;;;;;;;-141.28;100.00;49633.50;5135540;27;20962;-78
2022/10/22 02:51:14;;;;;;;27.50;16.97;;;;;;;-141.28;100.00;49649.19;5135596;27;20471;-76
2022/10/22 02:53:40;;;;;;;24.83;15.87;;;;;;;-141.28;100.00;49686.47;5135579;27;20448;-80
2022/10/22 02:56:08;;;;;;;31.67;16.63;;;;;;;-141.28;100.00;49688.44;5135631;27;20444;-76
2022/10/22 02:58:35;;;;;;;28.37;16.47;;;;;;;-141.28;100.00;49717.88;5123538;27;20444;-77
2022/10/22 03:01:02;;;;;;;28.90;15.80;;;;;;;-141.28;100.00;49721.81;5136020;27;20531;-75
2022/10/22 03:03:28;;;;;;;24.97;14.43;;;;;;;-141.28;100.00;49729.66;5139255;27;20470;-74
2022/10/22 03:05:57;;;;;;;22.70;15.23;;;;;;;-141.28;100.00;49745.34;5142353;27;20470;-76
2022/10/22 03:08:24;;;;;;;27.17;15.50;;;;;;;-141.28;100.00;49770.88;5143689;27;20503;-74
2022/10/22 03:10:51;;;;;;;31.47;15.67;;;;;;;-141.28;100.00;49796.38;5142017;27;20483;-75
2022/10/22 03:13:17;;;;;;;27.97;15.07;;;;;;;-141.28;100.00;49804.22;5142947;27;20958;-75
2022/10/22 03:15:44;;;;;;;29.97;15.53;;;;;;;-141.28;100.00;49808.16;5140924;27;20448;-73
2022/10/22 03:18:11;;;;;;;27.90;16.00;;;;;;;-141.28;100.00;49831.69;5135638;27;20454;-77
2022/10/22 03:20:38;;;;;;;32.13;16.37;;;;;;;-141.28;100.00;49861.13;5135344;27;20454;-78
2022/10/22 03:23:07;;;;;;;35.57;16.60;;;;;;;-141.28;100.00;49874.88;5136432;27;20452;-79
2022/10/22 03:25:35;;;;;;;29.57;16.60;;;;;;;-141.28;100.00;49874.88;5136605;27;20452;-75
2022/10/22 03:28:05;;;;;;;29.93;16.47;;;;;;;-141.28;100.00;49890.56;5137975;27;20950;-75
2022/10/22 03:30:32;;;;;;;31.10;16.87;;;;;;;-141.28;100.00;49888.63;5137233;27;20444;-75
2022/10/22 03:32:59;;;;;;;26.20;16.27;;;;;;;-141.28;100.00;49914.13;5144435;27;21026;-75
2022/10/22 03:35:26;;;;;;;31.83;15.97;;;;;;;-141.28;100.00;49937.69;5147680;27;20449;-75
2022/10/22 03:37:54;;;;;;;37.40;17.30;;;;;;;-141.28;100.00;49953.38;5158214;27;20443;-74
2022/10/22 03:40:22;;;;;;;33.93;15.67;;;;;;;-141.28;100.00;49973.00;5144812;27;20469;-74
2022/10/22 03:42:49;;;;;;;29.33;16.50;;;;;;;-141.28;100.00;49978.88;5146608;27;20436;-75
2022/10/22 03:45:16;;;;;;;34.40;17.37;;;;;;;-141.28;100.00;49994.59;5136767;27;20451;-76
2022/10/22 03:47:43;;;;;;;31.57;17.07;;;;;;;-141.28;100.00;50020.09;5135881;27;20458;-75
2022/10/22 03:50:10;;;;;;;32.73;17.93;;;;;;;-141.28;100.00;50020.09;5138975;27;20459;-78
2022/10/22 03:52:39;;;;;;;38.53;19.23;;;;;;;-141.28;100.00;50022.06;5134847;27;20491;-75
2022/10/22 03:55:07;;;;;;;35.70;19.80;;;;;;;-141.28;100.00;50065.25;5134832;27;20962;-80
2022/10/22 03:57:36;;;;;;;29.70;18.87;;;;;;;-141.28;100.00;50078.97;5126140;27;20509;-74
2022/10/22 04:00:05;;;;;;;34.87;19.83;;;;;;;-141.28;100.00;50090.75;5130702;27;20451;-78
2022/10/22 04:02:32;;;;;;;35.47;19.93;;;;;;;-141.28;100.00;50114.31;5134598;27;20448;-76
2022/10/22 04:04:58;;;;;;;38.30;21.07;;;;;;;-141.28;100.00;50116.28;5134084;27;20926;-78
2022/10/22 04:07:25;;;;;;;37.63;20.63;;;;;;;-141.28;100.00;50133.94;5134453;27;20954;-77
2022/10/22 04:09:52;;;;;;;35.17;19.70;;;;;;;-141.28;100.00;50149.63;5133913;27;20962;-76
2022/10/22 04:12:19;;;;;;;38.70;20.73;;;;;;;-141.28;100.00;50141.78;5134180;27;20985;-75
2022/10/22 04:14:49;;;;;;;43.70;19.70;;;;;;;-141.28;100.00;50188.91;5134263;27;20471;-76
2022/10/22 04:17:16;;;;;;;43.70;21.13;;;;;;;-141.28;100.00;50163.38;5134862;27;20497;-75
2022/10/22 04:19:43;;;;;;;44.07;20.93;;;;;;;-141.28;100.00;50192.81;5134452;27;20440;-75
2022/10/22 04:22:10;;;;;;;36.33;20.43;;;;;;;-141.28;100.00;50194.78;5134420;27;20447;-77
2022/10/22 04:24:38;;;;;;;39.93;20.17;;;;;;;-141.28;100.00;50216.38;5133912;27;20444;-78
2022/10/22 04:27:05;;;;;;;41.73;20.40;;;;;;;-141.28;100.00;50192.81;5133745;27;20511;-77
2022/10/22 04:29:31;;;;;;;36.40;20.77;;;;;;;-141.28;100.00;50226.19;5133582;27;20475;-75
2022/10/22 04:32:00;;;;;;;39.57;20.20;;;;;;;-141.28;100.00;50234.03;5133956;27;20540;-76
2022/10/22 04:34:28;;;;;;;43.67;21.47;;;;;;;-141.28;100.00;50237.97;5132753;27;20448;-78
2022/10/22 04:36:55;;;;;;;37.67;20.50;;;;;;;-141.28;100.00;50267.41;5133825;27;20531;-78
2022/10/22 04:39:22;;;;;;;36.70;20.57;;;;;;;-141.28;100.00;50251.69;5133702;27;20456;-78
2022/10/22 04:41:49;;;;;;;38.87;20.27;;;;;;;-141.28;100.00;50255.63;5133742;27;20440;-78
2022/10/22 04:44:16;;;;;;;44.67;20.80;;;;;;;-141.28;100.00;50281.13;5133908;27;20493;-76
2022/10/22 04:46:43;;;;;;;37.73;21.97;;;;;;;-141.28;100.00;50298.81;5133642;27;20457;-77
2022/10/22 04:49:11;;;;;;;38.20;21.47;;;;;;;-141.28;100.00;50302.72;5120195;27;20501;-76
2022/10/22 04:51:38;;;;;;;35.90;19.83;;;;;;;-141.28;100.00;50302.72;5132830;27;20476;-75
2022/10/22 04:54:05;;;;;;;70.27;21.43;;;;;;;-141.28;100.00;50298.81;5133302;27;20440;-76
2022/10/22 04:56:32;;;;;;;45.43;20.43;;;;;;;-141.28;100.00;50290.97;5133409;27;20448;-77
2022/10/22 04:59:00;;;;;;;58.33;20.67;;;;;;;-141.28;100.00;50314.50;5120728;27;20440;-75
2022/10/22 05:01:29;;;;;;;49.03;21.23;;;;;;;-141.28;100.00;50369.47;5132787;27;21023;-79
2022/10/22 05:03:58;;;;;;;47.53;21.73;;;;;;;-141.28;100.00;50373.38;5134340;27;20451;-77
2022/10/22 05:06:28;;;;;;;44.83;20.97;;;;;;;-141.28;100.00;50355.72;5133477;27;20496;-75
2022/10/22 05:08:58;;;;;;;51.63;19.70;;;;;;;-141.28;100.00;50369.47;5133306;27;20471;-77
2022/10/22 05:11:27;;;;;;;60.30;24.90;;;;;;;-141.28;100.00;50318.44;5132447;27;20472;-78
2022/10/22 05:13:58;;;;;;;59.30;28.17;;;;;;;-141.28;100.00;50332.19;5133120;27;20531;-77
2022/10/22 05:16:25;;;;;;;53.07;24.77;;;;;;;-141.28;100.00;50361.63;5133106;27;20444;-77
2022/10/22 05:18:52;;;;;;;40.27;19.70;;;;;;;-141.28;100.00;50338.06;5133238;27;20472;-74
2022/10/22 05:21:20;;;;;;;37.07;19.43;;;;;;;-141.28;100.00;50328.25;5132520;27;20984;-79
2022/10/22 05:23:50;;;;;;;42.00;20.83;;;;;;;-141.28;100.00;50318.44;5133322;27;20511;-81
2022/10/22 05:26:19;;;;;;;42.57;22.03;;;;;;;-141.28;100.00;50338.06;5132622;27;20444;-77
2022/10/22 05:28:46;;;;;;;53.47;23.47;;;;;;;-141.28;100.00;50345.91;5133125;27;20440;-79
2022/10/22 05:31:14;;;;;;;39.67;22.40;;;;;;;-141.28;100.00;50357.69;5132588;27;20806;-77
2022/10/22 05:33:42;;;;;;;38.90;21.73;;;;;;;-141.28;100.00;50334.13;5132299;27;20483;-77
2022/10/22 05:36:11;;;;;;;38.13;21.13;;;;;;;-141.28;100.00;50342.00;5132866;27;20439;-77
2022/10/22 05:38:38;;;;;;;37.77;20.80;;;;;;;-141.28;100.00;50298.81;5132584;27;20444;-79
2022/10/22 05:41:08;;;;;;;39.70;19.47;;;;;;;-141.28;100.00;50296.84;5132993;27;20444;-76
2022/10/22 05:43:36;;;;;;;45.57;19.93;;;;;;;-141.28;100.00;50349.84;5131898;27;20451;-76
2022/10/22 05:46:05;;;;;;;49.03;23.43;;;;;;;-141.28;100.00;50347.88;5132458;28;20444;-76
2022/10/22 05:48:33;;;;;;;47.47;21.53;;;;;;;-141.28;100.00;50289.00;5132303;28;20951;-74
2022/10/22 05:51:03;;;;;;;45.40;23.90;;;;;;;-141.28;100.00;50357.69;5132260;28;20962;-78
2022/10/22 05:53:32;;;;;;;47.93;22.93;;;;;;;-141.28;100.00;50349.84;5131780;28;21021;-77
2022/10/22 05:56:04;;;;;;;48.37;22.30;;;;;;;-141.28;100.00;50361.63;5132376;28;20455;-77
2022/10/22 05:58:32;;;;;;;54.10;23.40;;;;;;;-141.28;100.00;50628.56;5119446;28;20443;-75
2022/10/22 06:01:03;;;;;;;72.57;32.50;;;;;;;-141.28;100.00;50603.06;5132312;27;20460;-75
2022/10/22 06:03:30;;;;;;;53.77;26.63;;;;;;;-141.28;100.00;50502.94;5132530;28;20439;-75
2022/10/22 06:06:00;;;;;;;63.23;27.87;;;;;;;-141.28;100.00;50440.13;5120735;28;20543;-78
2022/10/22 06:08:28;;;;;;;48.33;22.93;;;;;;;-141.28;100.00;50471.53;5131031;28;20458;-76
2022/10/22 06:10:54;;;;;;;41.10;24.30;;;;;;;-141.28;100.00;50436.19;5131911;28;20532;-80
2022/10/22 06:13:22;;;;;;;40.47;21.80;;;;;;;-141.28;100.00;50508.81;5131112;28;20222;-75
2022/10/22 06:15:52;;;;;;;45.27;23.50;;;;;;;-141.28;100.00;50707.09;5131720;28;20531;-78
2022/10/22 06:18:19;;;;;;;39.73;21.17;;;;;;;-141.28;100.00;50815.06;5131150;28;20444;-77
2022/10/22 06:20:46;;;;;;;35.20;21.63;;;;;;;-141.28;100.00;50773.81;5132739;28;20198;-76
2022/10/22 06:23:14;;;;;;;38.20;19.93;;;;;;;-141.28;100.00;50656.06;5119449;28;20448;-77
2022/10/22 06:25:41;;;;;;;37.07;19.80;;;;;;;-141.28;100.00;50730.66;5130953;28;20563;-76
2022/10/22 06:28:09;;;;;;;49.70;20.37;;;;;;;-141.28;100.00;50834.69;5131589;28;20194;-78
2022/10/22 06:30:37;;;;;;;37.97;19.37;;;;;;;-141.28;100.00;50887.69;5131002;28;20264;-79
2022/10/22 06:33:06;;;;;;;35.70;19.27;;;;;;;-141.28;100.00;50862.16;5130863;28;20673;-77
2022/10/22 06:35:33;;;;;;;36.63;18.27;;;;;;;-141.28;100.00;50891.63;5131005;28;20712;-76
2022/10/22 06:38:00;;;;;;;33.70;18.03;;;;;;;-141.28;100.00;50950.50;5130864;28;20266;-77
2022/10/22 06:40:28;;;;;;;37.30;18.43;;;;;;;-141.28;100.00;50985.84;5130299;28;20206;-79
2022/10/22 06:42:56;;;;;;;33.47;18.73;;;;;;;-141.28;100.00;50987.81;5131297;28;20221;-77
2022/10/22 06:45:23;;;;;;;39.73;17.97;;;;;;;-141.28;100.00;51001.56;5130542;28;20214;-79
2022/10/22 06:47:50;;;;;;;37.93;18.13;;;;;;;-141.28;100.00;50985.84;5130968;28;20202;-77
2022/10/22 06:50:18;;;;;;;32.90;16.87;;;;;;;-141.28;100.00;50989.78;5130899;28;20207;-76
2022/10/22 06:52:45;;;;;;;32.30;17.67;;;;;;;-141.28;100.00;50919.09;5130645;27;20230;-80
2022/10/22 06:55:12;;;;;;;29.67;18.00;;;;;;;-141.28;100.00;50885.72;5134104;28;20281;-78
2022/10/22 06:57:39;;;;;;;30.73;18.47;;;;;;;-141.28;100.00;50870.03;5125422;28;20256;-78
2022/10/22 07:00:07;;;;;;;31.83;18.20;;;;;;;-141.28;100.00;50940.69;5130818;27;20203;-77
2022/10/22 07:02:34;;;;;;;29.27;18.70;;;;;;;-141.28;100.00;50891.63;5134171;28;20206;-76
2022/10/22 07:05:01;;;;;;;27.10;18.10;;;;;;;-141.28;100.00;50919.09;5133863;28;20233;-77
2022/10/22 07:07:29;;;;;;;36.37;18.57;;;;;;;-141.28;100.00;50877.88;5134225;28;20235;-76
2022/10/22 07:09:56;;;;;;;28.43;18.33;;;;;;;-141.28;100.00;50895.53;5134057;28;20274;-77
2022/10/22 07:12:24;;;;;;;35.53;19.23;;;;;;;-141.28;100.00;50844.50;5128937;27;135308;-77
2022/10/22 07:14:51;;;;;;;32.03;19.10;;;;;;;-141.28;100.00;50805.25;5134758;27;20657;-76
2022/10/22 07:17:18;;;;;;;35.20;19.37;;;;;;;-141.28;100.00;50818.97;5135112;27;20195;-79
2022/10/22 07:19:45;;;;;;;31.47;18.23;;;;;;;-141.28;100.00;50773.81;5134882;27;20201;-80
2022/10/22 07:22:11;;;;;;;28.73;17.77;;;;;;;-141.28;100.00;50726.72;5134884;27;20206;-76
2022/10/22 07:24:40;;;;;;;30.00;18.57;;;;;;;-141.28;100.00;50644.28;5129722;27;20220;-76
2022/10/22 07:27:07;;;;;;;37.47;21.83;;;;;;;-141.28;100.00;50530.41;5135402;27;20672;-74
2022/10/22 07:29:35;;;;;;;45.83;20.73;;;;;;;-141.28;100.00;50436.19;5142700;27;20206;-75
2022/10/22 07:32:01;;;;;;;28.13;18.07;;;;;;;-141.28;100.00;50359.66;5143846;27;20242;-75
2022/10/22 07:34:29;;;;;;;32.30;18.87;;;;;;;-141.28;100.00;50310.59;5134935;27;20201;-79
2022/10/22 07:36:56;;;;;;;36.17;19.23;;;;;;;-141.28;100.00;50294.88;5134987;27;20649;-76
2022/10/22 07:39:24;;;;;;;34.97;18.17;;;;;;;-141.28;100.00;50394.97;5136145;27;20194;-76
2022/10/22 07:41:53;;;;;;;29.30;18.70;;;;;;;-141.28;100.00;50628.56;5135992;27;20634;-75
2022/10/22 07:44:19;;;;;;;29.73;17.87;;;;;;;-141.28;100.00;50506.88;5134764;27;20202;-77
2022/10/22 07:46:46;;;;;;;31.80;19.10;;;;;;;-141.28;100.00;50597.16;5134871;27;20623;-75
2022/10/22 07:49:15;;;;;;;29.47;18.70;;;;;;;-141.28;100.00;50640.34;5134452;27;20626;-80
2022/10/22 07:51:42;;;;;;;29.17;18.97;;;;;;;-141.28;100.00;50616.78;5134630;27;20659;-77
2022/10/22 07:54:08;;;;;;;37.80;18.87;;;;;;;-141.28;100.00;50522.56;5134621;27;20233;-76
2022/10/22 07:56:35;;;;;;;34.23;19.30;;;;;;;-141.28;100.00;50279.19;5134444;27;20304;-77
2022/10/22 07:59:04;;;;;;;37.90;17.80;;;;;;;-141.28;100.00;50289.00;5122285;27;20199;-79
2022/10/22 08:01:30;;;;;;;52.87;19.37;;;;;;;-141.28;100.00;50567.72;5134656;27;20214;-76
2022/10/22 08:03:58;;;;;;;32.57;17.93;;;;;;;-141.28;100.00;50510.78;5134803;27;20225;-78
2022/10/22 08:06:25;;;;;;;30.83;18.23;;;;;;;-141.28;100.00;50473.50;5133333;27;20273;-79
2022/10/22 08:08:52;;;;;;;34.30;19.73;;;;;;;-141.28;100.00;50436.19;5134232;27;20591;-76
2022/10/22 08:11:19;;;;;;;32.67;19.20;;;;;;;-141.28;100.00;50342.00;5134605;27;20218;-75
2022/10/22 08:13:46;;;;;;;31.90;18.90;;;;;;;-141.28;100.00;50310.59;5136904;27;20784;-75
2022/10/22 08:16:15;;;;;;;32.03;18.07;;;;;;;-141.28;100.00;50271.31;5135908;27;20279;-76
2022/10/22 08:18:42;;;;;;;31.80;18.87;;;;;;;-141.28;100.00;50289.00;5135285;27;20279;-76
2022/10/22 08:21:08;;;;;;;28.73;18.03;;;;;;;-141.28;100.00;50436.19;5134859;27;20206;-76
2022/10/22 08:23:36;;;;;;;28.23;17.87;;;;;;;-141.28;100.00;50463.69;5134111;27;20205;-76
2022/10/22 08:26:03;;;;;;;31.77;18.17;;;;;;;-141.28;100.00;50451.91;5133742;27;20202;-78
2022/10/22 08:28:34;;;;;;;35.17;18.40;;;;;;;-141.28;100.00;50473.50;5133736;27;20589;-76
2022/10/22 08:31:01;;;;;;;28.87;18.17;;;;;;;-141.28;100.00;50365.53;5133527;27;20198;-80
2022/10/22 08:33:31;;;;;;;30.63;18.57;;;;;;;-141.28;100.00;50200.66;5133599;27;20218;-77
2022/10/22 08:35:58;;;;;;;31.43;18.13;;;;;;;-141.28;100.00;50059.34;5133536;27;20695;-77
2022/10/22 08:38:25;;;;;;;38.43;18.10;;;;;;;-141.28;100.00;49870.94;5133159;27;20634;-78
2022/10/22 08:40:57;;;;;;;31.73;17.83;;;;;;;-141.28;100.00;49827.78;5133366;27;20224;-77
2022/10/22 08:43:38;;;;;;;34.10;18.03;;;;;;;-141.28;100.00;49812.06;5120164;27;20233;-75
2022/10/22 08:46:15;;;;;;;25.03;17.70;;;;;;;-141.28;100.00;49766.94;5132866;27;20209;-79
2022/10/22 08:48:46;;;;;;;24.40;16.63;;;;;;;-141.28;100.00;49969.06;5133452;27;20586;-77
2022/10/22 08:51:16;;;;;;;26.03;17.13;;;;;;;-141.28;100.00;50296.84;5133235;27;20202;-78
2022/10/22 08:53:54;;;;;;;25.33;16.37;;;;;;;-141.28;100.00;49882.72;5133335;27;20629;-80
2022/10/22 08:56:23;;;;;;;27.33;17.30;;;;;;;-141.28;100.00;49759.09;5120313;27;20214;-79
2022/10/22 08:58:57;;;;;;;31.13;16.17;;;;;;;-141.28;100.00;49659.00;5122889;27;20206;-79
2022/10/22 09:01:34;;;;;;;22.20;15.03;;;;;;;-141.28;100.00;49702.19;5133242;27;20214;-76
2022/10/22 09:04:07;;;;;;;25.87;15.60;;;;;;;-141.28;100.00;49778.72;5124901;27;20251;-76
2022/10/22 09:06:36;;;;;;;22.60;13.03;;;;;;;-141.28;100.00;49749.28;5130063;27;20201;-78
2022/10/22 09:09:11;;;;;;;23.13;16.43;;;;;;;-141.28;100.00;49910.19;5133721;27;20216;-76
2022/10/22 09:11:43;;;;;;;24.17;16.43;;;;;;;-141.28;100.00;49776.75;5133195;27;20231;-76
2022/10/22 09:14:14;;;;;;;19.87;14.57;;;;;;;-141.28;100.00;49839.56;5133215;27;20221;-77
2022/10/22 09:16:55;;;;;;;17.97;13.20;;;;;;;-141.28;100.00;49827.78;5132744;27;20198;-79
2022/10/22 09:19:31;;;;;;;21.50;14.40;;;;;;;-141.28;100.00;49827.78;5132896;27;20269;-78
2022/10/22 09:22:06;;;;;;;23.80;14.30;;;;;;;-141.28;100.00;49686.47;5133425;27;20202;-77
2022/10/22 09:24:37;;;;;;;18.40;13.40;;;;;;;-141.28;100.00;49957.31;5132956;27;20196;-77
2022/10/22 09:27:11;;;;;;;24.20;13.60;;;;;;;-141.28;100.00;50004.41;5132662;27;20206;-76
2022/10/22 09:29:39;;;;;;;20.13;12.33;;;;;;;-141.28;100.00;49604.06;5132822;27;20194;-77
2022/10/22 09:32:06;;;;;;;25.73;13.93;;;;;;;-141.28;100.00;49388.22;5132633;27;20208;-77
2022/10/22 09:34:36;;;;;;;26.77;14.07;;;;;;;-141.28;100.00;49460.81;5132961;27;20775;-77
2022/10/22 09:37:07;;;;;;;21.90;14.27;;;;;;;-141.28;100.00;49360.75;5132764;27;20677;-78
2022/10/22 09:39:36;;;;;;;19.63;13.13;;;;;;;-141.28;100.00;49321.50;5132733;27;20680;-76
2022/10/22 09:42:04;;;;;;;20.67;13.77;;;;;;;-141.28;100.00;49372.50;5132577;27;20271;-77
2022/10/22 09:44:33;;;;;;;24.03;14.03;;;;;;;-141.28;100.00;49341.13;5133258;27;20198;-75
2022/10/22 09:47:03;;;;;;;25.77;14.80;;;;;;;-141.28;100.00;49352.88;5132751;28;20194;-77
2022/10/22 09:49:38;;;;;;;24.83;13.73;;;;;;;-141.28;100.00;49490.25;5132761;28;20262;-76
2022/10/22 09:52:26;;;;;;;27.87;15.13;;;;;;;-141.28;100.00;49513.78;5132378;28;20223;-76
2022/10/22 09:54:53;;;;;;;25.83;14.77;;;;;;;-141.28;100.00;49482.41;5132335;28;20290;-77
2022/10/22 09:57:22;;;;;;;25.20;14.50;;;;;;;-141.28;100.00;49411.75;5126082;28;20198;-79
2022/10/22 09:59:52;;;;;;;24.93;13.20;;;;;;;-141.28;100.00;49333.25;5126710;28;20716;-79
2022/10/22 10:02:21;;;;;;;27.47;13.87;;;;;;;-141.28;100.00;49311.69;5132010;28;20218;-77
2022/10/22 10:04:50;;;;;;;19.00;12.83;;;;;;;-141.28;100.00;49246.94;5132372;28;20198;-78
2022/10/22 10:07:21;;;;;;;20.90;13.10;;;;;;;-141.28;100.00;49221.41;5133393;28;20321;-77
2022/10/22 10:09:49;;;;;;;24.53;13.57;;;;;;;-141.28;100.00;49235.16;5131894;28;20212;-78
2022/10/22 10:12:34;;;;;;;17.53;12.63;;;;;;;-141.28;100.00;49156.66;5131729;28;20230;-78
2022/10/22 10:15:12;;;;;;;17.97;12.57;;;;;;;-141.28;100.00;49258.69;5131667;28;20226;-77
2022/10/22 10:17:45;;;;;;;24.37;13.80;;;;;;;-141.28;100.00;49325.41;5134575;28;20210;-79
2022/10/22 10:20:28;;;;;;;21.53;12.27;;;;;;;-141.28;100.00;49305.78;5132034;28;20687;-78
2022/10/22 10:23:08;;;;;;;24.83;13.30;;;;;;;-141.28;100.00;49321.50;5132385;28;20202;-77
2022/10/22 10:25:46;;;;;;;24.47;12.87;;;;;;;-141.28;100.00;49219.47;5138722;28;20223;-77
2022/10/22 10:28:27;;;;;;;19.40;12.27;;;;;;;-141.28;100.00;49203.75;5143354;27;20216;-75
2022/10/22 10:31:03;;;;;;;18.83;12.23;;;;;;;-141.28;100.00;49878.81;5157061;27;20269;-77
2022/10/22 10:33:40;;;;;;;19.40;12.90;;;;;;;-141.28;100.00;49213.56;5136541;27;20217;-79
2022/10/22 10:36:16;;;;;;;15.63;12.23;;;;;;;-141.28;100.00;49184.13;5136251;27;20198;-76
2022/10/22 10:38:57;;;;;;;19.10;10.90;;;;;;;-141.28;100.00;49176.28;5137639;27;20250;-78
2022/10/22 10:41:33;;;;;;;19.67;11.50;;;;;;;-141.28;100.00;49172.38;5137639;27;20228;-73
2022/10/22 10:44:20;;;;;;;22.57;11.83;;;;;;;-141.28;100.00;49176.28;5137398;27;20251;-79
2022/10/22 10:46:55;;;;;;;20.07;12.37;;;;;;;-141.28;100.00;49398.03;5143176;27;20250;-76
2022/10/22 10:49:26;;;;;;;25.67;12.60;;;;;;;-141.28;100.00;49074.25;5159959;27;20195;-76
2022/10/22 10:51:58;;;;;;;13.93;10.83;;;;;;;-141.28;100.00;49142.94;5146040;27;20198;-73
2022/10/22 10:54:41;;;;;;;21.77;11.70;;;;;;;-141.28;100.00;49182.19;5159259;27;20248;-77
2022/10/22 10:57:16;;;;;;;21.00;11.93;;;;;;;-141.28;100.00;49158.63;5150017;27;20202;-78
2022/10/22 11:00:01;;;;;;;16.77;11.37;;;;;;;-141.28;100.00;49137.06;5129772;27;20205;-76
2022/10/22 11:03:01;;;;;;;22.87;10.70;;;;;;;-141.28;100.00;49176.28;5136191;27;20225;-76
2022/10/22 11:05:34;;;;;;;15.80;10.90;;;;;;;-141.28;99.76;49188.06;5136465;27;20194;-77
2022/10/22 11:08:05;;;;;;;25.07;11.13;;;;;;;-141.28;98.85;49133.13;5135570;27;20201;-79